sensor_id;sensor_type;location;lat;lon;timestamp;P1;durP1;ratioP1;P2;durP2;ratioP2
18280;SDS011;9266;51.132;17.062;2024-01-15T00:02:23;23.67;;;13.93;;
18280;SDS011;9266;51.132;17.062;2024-01-15T00:04:51;17.53;;;12.83;;
18280;SDS011;9266;51.132;17.062;2024-01-15T00:07:18;18.83;;;12.47;;
18280;SDS011;9266;51.132;17.062;2024-01-15T00:09:45;20.13;;;13.53;;
18280;SDS011;9266;51.132;17.062;2024-01-15T00:12:12;18.03;;;12.47;;
18280;SDS011;9266;51.132;17.062;2024-01-15T00:14:38;19.07;;;12.33;;
18280;SDS011;9266;51.132;17.062;2024-01-15T00:17:05;16.43;;;11.73;;
18280;SDS011;9266;51.132;17.062;2024-01-15T00:19:32;16.70;;;11.37;;
18280;SDS011;9266;51.132;17.062;2024-01-15T00:22:01;15.50;;;11.57;;
18280;SDS011;9266;51.132;17.062;2024-01-15T00:24:28;16.60;;;11.37;;
18280;SDS011;9266;51.132;17.062;2024-01-15T00:26:54;14.33;;;10.90;;
18280;SDS011;9266;51.132;17.062;2024-01-15T00:29:21;15.73;;;11.07;;
18280;SDS011;9266;51.132;17.062;2024-01-15T00:31:48;18.70;;;11.77;;
18280;SDS011;9266;51.132;17.062;2024-01-15T00:34:15;17.47;;;11.90;;
18280;SDS011;9266;51.132;17.062;2024-01-15T00:36:42;15.40;;;10.60;;
18280;SDS011;9266;51.132;17.062;2024-01-15T00:39:10;18.90;;;11.70;;
18280;SDS011;9266;51.132;17.062;2024-01-15T00:41:37;16.97;;;10.50;;
18280;SDS011;9266;51.132;17.062;2024-01-15T00:44:04;17.20;;;11.53;;
18280;SDS011;9266;51.132;17.062;2024-01-15T00:46:32;15.93;;;11.27;;
18280;SDS011;9266;51.132;17.062;2024-01-15T00:48:59;14.33;;;10.43;;
18280;SDS011;9266;51.132;17.062;2024-01-15T00:51:25;13.23;;;10.50;;
18280;SDS011;9266;51.132;17.062;2024-01-15T00:53:52;14.63;;;10.60;;
18280;SDS011;9266;51.132;17.062;2024-01-15T00:56:21;14.53;;;10.40;;
18280;SDS011;9266;51.132;17.062;2024-01-15T00:58:47;12.97;;;10.00;;
18280;SDS011;9266;51.132;17.062;2024-01-15T01:01:14;14.93;;;10.10;;
18280;SDS011;9266;51.132;17.062;2024-01-15T01:03:41;13.77;;;9.70;;
18280;SDS011;9266;51.132;17.062;2024-01-15T01:06:08;12.67;;;9.80;;
18280;SDS011;9266;51.132;17.062;2024-01-15T01:08:35;14.50;;;9.90;;
18280;SDS011;9266;51.132;17.062;2024-01-15T01:11:02;14.60;;;9.77;;
18280;SDS011;9266;51.132;17.062;2024-01-15T01:13:30;13.93;;;9.67;;
18280;SDS011;9266;51.132;17.062;2024-01-15T01:15:57;15.60;;;10.53;;
18280;SDS011;9266;51.132;17.062;2024-01-15T01:18:24;15.60;;;10.03;;
18280;SDS011;9266;51.132;17.062;2024-01-15T01:20:51;14.57;;;9.67;;
18280;SDS011;9266;51.132;17.062;2024-01-15T01:23:18;14.57;;;9.73;;
18280;SDS011;9266;51.132;17.062;2024-01-15T01:25:45;14.27;;;10.33;;
18280;SDS011;9266;51.132;17.062;2024-01-15T01:28:12;14.83;;;10.40;;
18280;SDS011;9266;51.132;17.062;2024-01-15T01:30:40;13.73;;;9.97;;
18280;SDS011;9266;51.132;17.062;2024-01-15T01:33:07;15.90;;;10.53;;
18280;SDS011;9266;51.132;17.062;2024-01-15T01:35:34;16.67;;;10.50;;
18280;SDS011;9266;51.132;17.062;2024-01-15T01:38:01;14.10;;;10.27;;
18280;SDS011;9266;51.132;17.062;2024-01-15T01:40:28;13.87;;;10.40;;
18280;SDS011;9266;51.132;17.062;2024-01-15T01:42:55;14.90;;;10.17;;
18280;SDS011;9266;51.132;17.062;2024-01-15T01:45:21;15.30;;;10.53;;
18280;SDS011;9266;51.132;17.062;2024-01-15T01:47:50;14.70;;;10.17;;
18280;SDS011;9266;51.132;17.062;2024-01-15T01:50:17;13.07;;;9.97;;
18280;SDS011;9266;51.132;17.062;2024-01-15T01:52:44;16.27;;;10.33;;
18280;SDS011;9266;51.132;17.062;2024-01-15T01:55:11;16.53;;;10.50;;
18280;SDS011;9266;51.132;17.062;2024-01-15T01:57:38;13.00;;;10.47;;
18280;SDS011;9266;51.132;17.062;2024-01-15T02:00:06;13.07;;;10.17;;
18280;SDS011;9266;51.132;17.062;2024-01-15T02:02:35;15.93;;;10.63;;
18280;SDS011;9266;51.132;17.062;2024-01-15T02:05:04;17.57;;;11.20;;
18280;SDS011;9266;51.132;17.062;2024-01-15T02:07:32;15.53;;;10.73;;
18280;SDS011;9266;51.132;17.062;2024-01-15T02:10:01;17.40;;;11.07;;
18280;SDS011;9266;51.132;17.062;2024-01-15T02:12:29;14.80;;;10.80;;
18280;SDS011;9266;51.132;17.062;2024-01-15T02:14:56;14.90;;;10.87;;
18280;SDS011;9266;51.132;17.062;2024-01-15T02:17:22;15.30;;;11.40;;
18280;SDS011;9266;51.132;17.062;2024-01-15T02:19:49;18.67;;;12.57;;
18280;SDS011;9266;51.132;17.062;2024-01-15T02:22:18;20.77;;;13.20;;
18280;SDS011;9266;51.132;17.062;2024-01-15T02:24:46;20.37;;;14.13;;
18280;SDS011;9266;51.132;17.062;2024-01-15T02:27:13;18.57;;;12.80;;
18280;SDS011;9266;51.132;17.062;2024-01-15T02:29:40;20.20;;;12.63;;
18280;SDS011;9266;51.132;17.062;2024-01-15T02:32:08;22.40;;;13.30;;
18280;SDS011;9266;51.132;17.062;2024-01-15T02:34:35;22.10;;;12.80;;
18280;SDS011;9266;51.132;17.062;2024-01-15T02:37:02;15.57;;;11.17;;
18280;SDS011;9266;51.132;17.062;2024-01-15T02:39:29;15.97;;;11.87;;
18280;SDS011;9266;51.132;17.062;2024-01-15T02:41:57;16.13;;;11.40;;
18280;SDS011;9266;51.132;17.062;2024-01-15T02:44:24;15.00;;;11.10;;
18280;SDS011;9266;51.132;17.062;2024-01-15T02:46:51;16.73;;;11.70;;
18280;SDS011;9266;51.132;17.062;2024-01-15T02:49:18;15.70;;;11.73;;
18280;SDS011;9266;51.132;17.062;2024-01-15T02:51:45;14.67;;;10.50;;
18280;SDS011;9266;51.132;17.062;2024-01-15T02:54:12;17.20;;;11.53;;
18280;SDS011;9266;51.132;17.062;2024-01-15T02:56:39;19.20;;;11.93;;
18280;SDS011;9266;51.132;17.062;2024-01-15T02:59:07;16.00;;;11.23;;
18280;SDS011;9266;51.132;17.062;2024-01-15T03:01:34;19.40;;;12.47;;
18280;SDS011;9266;51.132;17.062;2024-01-15T03:04:01;17.03;;;12.70;;
18280;SDS011;9266;51.132;17.062;2024-01-15T03:06:28;23.07;;;12.57;;
18280;SDS011;9266;51.132;17.062;2024-01-15T03:08:54;23.00;;;13.50;;
18280;SDS011;9266;51.132;17.062;2024-01-15T03:11:21;18.87;;;10.77;;
18280;SDS011;9266;51.132;17.062;2024-01-15T03:13:48;16.00;;;9.83;;
18280;SDS011;9266;51.132;17.062;2024-01-15T03:16:16;14.83;;;9.27;;
18280;SDS011;9266;51.132;17.062;2024-01-15T03:18:45;13.87;;;10.20;;
18280;SDS011;9266;51.132;17.062;2024-01-15T03:21:11;13.33;;;10.13;;
18280;SDS011;9266;51.132;17.062;2024-01-15T03:23:38;14.50;;;9.40;;
18280;SDS011;9266;51.132;17.062;2024-01-15T03:26:05;12.70;;;9.73;;
18280;SDS011;9266;51.132;17.062;2024-01-15T03:28:32;12.93;;;8.63;;
18280;SDS011;9266;51.132;17.062;2024-01-15T03:30:59;11.17;;;7.57;;
18280;SDS011;9266;51.132;17.062;2024-01-15T03:33:27;13.70;;;9.00;;
18280;SDS011;9266;51.132;17.062;2024-01-15T03:35:54;14.50;;;9.40;;
18280;SDS011;9266;51.132;17.062;2024-01-15T03:38:22;19.47;;;9.90;;
18280;SDS011;9266;51.132;17.062;2024-01-15T03:40:49;16.53;;;10.57;;
18280;SDS011;9266;51.132;17.062;2024-01-15T03:43:16;14.63;;;9.00;;
18280;SDS011;9266;51.132;17.062;2024-01-15T03:45:43;12.23;;;8.60;;
18280;SDS011;9266;51.132;17.062;2024-01-15T03:48:10;14.47;;;9.83;;
18280;SDS011;9266;51.132;17.062;2024-01-15T03:50:39;13.70;;;8.97;;
18280;SDS011;9266;51.132;17.062;2024-01-15T03:53:06;13.57;;;8.80;;
18280;SDS011;9266;51.132;17.062;2024-01-15T03:55:32;18.07;;;10.07;;
18280;SDS011;9266;51.132;17.062;2024-01-15T03:57:59;16.37;;;9.30;;
18280;SDS011;9266;51.132;17.062;2024-01-15T04:00:26;13.23;;;8.70;;
18280;SDS011;9266;51.132;17.062;2024-01-15T04:02:53;11.07;;;7.83;;
18280;SDS011;9266;51.132;17.062;2024-01-15T04:05:20;12.67;;;8.37;;
18280;SDS011;9266;51.132;17.062;2024-01-15T04:07:48;12.53;;;8.40;;
18280;SDS011;9266;51.132;17.062;2024-01-15T04:10:15;11.07;;;8.20;;
18280;SDS011;9266;51.132;17.062;2024-01-15T04:12:42;12.23;;;8.30;;
18280;SDS011;9266;51.132;17.062;2024-01-15T04:15:11;10.50;;;8.37;;
18280;SDS011;9266;51.132;17.062;2024-01-15T04:17:38;10.73;;;8.10;;
18280;SDS011;9266;51.132;17.062;2024-01-15T04:20:05;11.03;;;7.53;;
18280;SDS011;9266;51.132;17.062;2024-01-15T04:22:33;10.77;;;7.60;;
18280;SDS011;9266;51.132;17.062;2024-01-15T04:25:02;10.07;;;8.00;;
18280;SDS011;9266;51.132;17.062;2024-01-15T04:27:30;12.07;;;8.33;;
18280;SDS011;9266;51.132;17.062;2024-01-15T04:29:57;14.27;;;8.43;;
18280;SDS011;9266;51.132;17.062;2024-01-15T04:32:24;12.17;;;7.67;;
18280;SDS011;9266;51.132;17.062;2024-01-15T04:34:51;10.83;;;7.60;;
18280;SDS011;9266;51.132;17.062;2024-01-15T04:37:17;13.03;;;7.93;;
18280;SDS011;9266;51.132;17.062;2024-01-15T04:39:44;11.27;;;7.40;;
18280;SDS011;9266;51.132;17.062;2024-01-15T04:42:13;11.03;;;6.93;;
18280;SDS011;9266;51.132;17.062;2024-01-15T04:44:39;9.93;;;7.07;;
18280;SDS011;9266;51.132;17.062;2024-01-15T04:47:06;9.97;;;6.97;;
18280;SDS011;9266;51.132;17.062;2024-01-15T04:49:33;10.43;;;7.20;;
18280;SDS011;9266;51.132;17.062;2024-01-15T04:52:00;8.60;;;6.47;;
18280;SDS011;9266;51.132;17.062;2024-01-15T04:54:27;9.80;;;6.80;;
18280;SDS011;9266;51.132;17.062;2024-01-15T04:56:54;9.50;;;7.07;;
18280;SDS011;9266;51.132;17.062;2024-01-15T04:59:22;11.20;;;8.13;;
18280;SDS011;9266;51.132;17.062;2024-01-15T05:01:49;13.60;;;8.83;;
18280;SDS011;9266;51.132;17.062;2024-01-15T05:04:16;12.77;;;8.63;;
18280;SDS011;9266;51.132;17.062;2024-01-15T05:06:43;10.90;;;8.80;;
18280;SDS011;9266;51.132;17.062;2024-01-15T05:09:10;11.57;;;8.57;;
18280;SDS011;9266;51.132;17.062;2024-01-15T05:11:38;10.57;;;7.80;;
18280;SDS011;9266;51.132;17.062;2024-01-15T05:14:05;11.27;;;7.70;;
18280;SDS011;9266;51.132;17.062;2024-01-15T05:16:33;10.37;;;7.30;;
18280;SDS011;9266;51.132;17.062;2024-01-15T05:19:00;8.67;;;7.27;;
18280;SDS011;9266;51.132;17.062;2024-01-15T05:21:27;10.03;;;7.40;;
18280;SDS011;9266;51.132;17.062;2024-01-15T05:23:54;8.47;;;6.97;;
18280;SDS011;9266;51.132;17.062;2024-01-15T05:26:21;12.90;;;7.73;;
18280;SDS011;9266;51.132;17.062;2024-01-15T05:28:48;11.33;;;6.83;;
18280;SDS011;9266;51.132;17.062;2024-01-15T05:31:15;10.97;;;6.17;;
18280;SDS011;9266;51.132;17.062;2024-01-15T05:33:43;7.73;;;6.13;;
18280;SDS011;9266;51.132;17.062;2024-01-15T05:36:10;9.83;;;6.47;;
18280;SDS011;9266;51.132;17.062;2024-01-15T05:38:37;9.53;;;6.50;;
18280;SDS011;9266;51.132;17.062;2024-01-15T05:41:04;12.60;;;6.97;;
18280;SDS011;9266;51.132;17.062;2024-01-15T05:43:31;11.47;;;8.30;;
18280;SDS011;9266;51.132;17.062;2024-01-15T05:45:58;10.13;;;7.30;;
18280;SDS011;9266;51.132;17.062;2024-01-15T05:48:25;10.07;;;7.60;;
18280;SDS011;9266;51.132;17.062;2024-01-15T05:50:53;10.53;;;7.90;;
18280;SDS011;9266;51.132;17.062;2024-01-15T05:53:20;15.20;;;8.47;;
18280;SDS011;9266;51.132;17.062;2024-01-15T05:55:47;14.17;;;8.80;;
18280;SDS011;9266;51.132;17.062;2024-01-15T05:58:14;15.10;;;8.53;;
18280;SDS011;9266;51.132;17.062;2024-01-15T06:00:41;13.37;;;9.43;;
18280;SDS011;9266;51.132;17.062;2024-01-15T06:03:08;14.80;;;9.47;;
18280;SDS011;9266;51.132;17.062;2024-01-15T06:05:35;16.50;;;9.13;;
18280;SDS011;9266;51.132;17.062;2024-01-15T06:08:03;12.53;;;8.73;;
18280;SDS011;9266;51.132;17.062;2024-01-15T06:10:30;16.73;;;10.77;;
18280;SDS011;9266;51.132;17.062;2024-01-15T06:12:57;12.80;;;8.83;;
18280;SDS011;9266;51.132;17.062;2024-01-15T06:15:24;13.67;;;9.00;;
18280;SDS011;9266;51.132;17.062;2024-01-15T06:17:51;17.00;;;9.57;;
18280;SDS011;9266;51.132;17.062;2024-01-15T06:20:17;16.07;;;9.87;;
18280;SDS011;9266;51.132;17.062;2024-01-15T06:22:44;15.87;;;10.23;;
18280;SDS011;9266;51.132;17.062;2024-01-15T06:25:13;14.97;;;9.07;;
18280;SDS011;9266;51.132;17.062;2024-01-15T06:27:40;16.07;;;8.90;;
18280;SDS011;9266;51.132;17.062;2024-01-15T06:30:07;14.70;;;9.40;;
18280;SDS011;9266;51.132;17.062;2024-01-15T06:32:34;15.87;;;9.90;;
18280;SDS011;9266;51.132;17.062;2024-01-15T06:35:01;13.03;;;8.63;;
18280;SDS011;9266;51.132;17.062;2024-01-15T06:37:28;13.87;;;8.47;;
18280;SDS011;9266;51.132;17.062;2024-01-15T06:39:55;12.00;;;8.30;;
18280;SDS011;9266;51.132;17.062;2024-01-15T06:42:24;14.43;;;8.60;;
18280;SDS011;9266;51.132;17.062;2024-01-15T06:44:51;16.17;;;9.43;;
18280;SDS011;9266;51.132;17.062;2024-01-15T06:47:18;14.43;;;7.50;;
18280;SDS011;9266;51.132;17.062;2024-01-15T06:49:45;14.67;;;8.03;;
18280;SDS011;9266;51.132;17.062;2024-01-15T06:52:12;11.57;;;8.10;;
18280;SDS011;9266;51.132;17.062;2024-01-15T06:54:39;12.10;;;8.90;;
18280;SDS011;9266;51.132;17.062;2024-01-15T06:57:06;13.57;;;8.60;;
18280;SDS011;9266;51.132;17.062;2024-01-15T06:59:34;11.50;;;8.47;;
18280;SDS011;9266;51.132;17.062;2024-01-15T07:02:01;10.50;;;7.33;;
18280;SDS011;9266;51.132;17.062;2024-01-15T07:04:28;12.70;;;8.17;;
18280;SDS011;9266;51.132;17.062;2024-01-15T07:06:55;13.13;;;7.63;;
18280;SDS011;9266;51.132;17.062;2024-01-15T07:09:22;11.43;;;7.63;;
18280;SDS011;9266;51.132;17.062;2024-01-15T07:11:49;12.37;;;8.30;;
18280;SDS011;9266;51.132;17.062;2024-01-15T07:14:16;11.63;;;7.13;;
18280;SDS011;9266;51.132;17.062;2024-01-15T07:16:44;10.87;;;7.53;;
18280;SDS011;9266;51.132;17.062;2024-01-15T07:19:11;11.70;;;7.97;;
18280;SDS011;9266;51.132;17.062;2024-01-15T07:21:38;11.13;;;7.60;;
18280;SDS011;9266;51.132;17.062;2024-01-15T07:24:08;10.03;;;7.27;;
18280;SDS011;9266;51.132;17.062;2024-01-15T07:26:35;10.50;;;7.10;;
18280;SDS011;9266;51.132;17.062;2024-01-15T07:29:02;10.73;;;7.27;;
18280;SDS011;9266;51.132;17.062;2024-01-15T07:31:29;9.93;;;7.10;;
18280;SDS011;9266;51.132;17.062;2024-01-15T07:33:59;10.83;;;7.10;;
18280;SDS011;9266;51.132;17.062;2024-01-15T07:36:26;11.37;;;7.37;;
18280;SDS011;9266;51.132;17.062;2024-01-15T07:38:53;9.70;;;7.30;;
18280;SDS011;9266;51.132;17.062;2024-01-15T07:41:20;10.93;;;7.70;;
18280;SDS011;9266;51.132;17.062;2024-01-15T07:43:47;9.80;;;7.53;;
18280;SDS011;9266;51.132;17.062;2024-01-15T07:46:14;12.00;;;7.30;;
18280;SDS011;9266;51.132;17.062;2024-01-15T07:48:40;11.67;;;7.83;;
18280;SDS011;9266;51.132;17.062;2024-01-15T07:51:09;12.60;;;7.93;;
18280;SDS011;9266;51.132;17.062;2024-01-15T07:53:36;14.93;;;7.70;;
18280;SDS011;9266;51.132;17.062;2024-01-15T07:56:03;10.13;;;7.17;;
18280;SDS011;9266;51.132;17.062;2024-01-15T07:58:30;16.20;;;8.07;;
18280;SDS011;9266;51.132;17.062;2024-01-15T08:00:57;14.60;;;7.77;;
18280;SDS011;9266;51.132;17.062;2024-01-15T08:03:24;15.70;;;8.27;;
18280;SDS011;9266;51.132;17.062;2024-01-15T08:05:51;11.87;;;7.97;;
18280;SDS011;9266;51.132;17.062;2024-01-15T08:08:20;13.70;;;7.20;;
18280;SDS011;9266;51.132;17.062;2024-01-15T08:10:48;10.40;;;6.90;;
18280;SDS011;9266;51.132;17.062;2024-01-15T08:13:15;10.27;;;7.03;;
18280;SDS011;9266;51.132;17.062;2024-01-15T08:15:42;9.07;;;6.83;;
18280;SDS011;9266;51.132;17.062;2024-01-15T08:18:09;8.67;;;6.17;;
18280;SDS011;9266;51.132;17.062;2024-01-15T08:20:36;11.30;;;6.63;;
18280;SDS011;9266;51.132;17.062;2024-01-15T08:23:03;9.63;;;5.83;;
18280;SDS011;9266;51.132;17.062;2024-01-15T08:25:31;11.03;;;6.70;;
18280;SDS011;9266;51.132;17.062;2024-01-15T08:27:58;9.90;;;6.43;;
18280;SDS011;9266;51.132;17.062;2024-01-15T08:30:25;11.07;;;6.63;;
18280;SDS011;9266;51.132;17.062;2024-01-15T08:32:52;15.07;;;7.43;;
18280;SDS011;9266;51.132;17.062;2024-01-15T08:35:19;9.53;;;6.10;;
18280;SDS011;9266;51.132;17.062;2024-01-15T08:37:48;9.90;;;5.50;;
18280;SDS011;9266;51.132;17.062;2024-01-15T08:40:15;10.60;;;6.10;;
18280;SDS011;9266;51.132;17.062;2024-01-15T08:42:43;9.00;;;6.03;;
18280;SDS011;9266;51.132;17.062;2024-01-15T08:45:10;8.87;;;6.03;;
18280;SDS011;9266;51.132;17.062;2024-01-15T08:47:38;8.50;;;6.27;;
18280;SDS011;9266;51.132;17.062;2024-01-15T08:50:05;10.93;;;5.10;;
18280;SDS011;9266;51.132;17.062;2024-01-15T08:52:35;7.10;;;5.07;;
18280;SDS011;9266;51.132;17.062;2024-01-15T08:55:02;7.00;;;5.53;;
18280;SDS011;9266;51.132;17.062;2024-01-15T08:57:32;8.33;;;4.93;;
18280;SDS011;9266;51.132;17.062;2024-01-15T08:59:59;10.43;;;5.30;;
18280;SDS011;9266;51.132;17.062;2024-01-15T09:02:26;10.30;;;4.97;;
18280;SDS011;9266;51.132;17.062;2024-01-15T09:04:54;7.23;;;5.10;;
18280;SDS011;9266;51.132;17.062;2024-01-15T09:07:20;9.30;;;5.43;;
18280;SDS011;9266;51.132;17.062;2024-01-15T09:09:47;7.47;;;4.80;;
18280;SDS011;9266;51.132;17.062;2024-01-15T09:12:14;10.03;;;5.00;;
18280;SDS011;9266;51.132;17.062;2024-01-15T09:14:43;8.37;;;5.33;;
18280;SDS011;9266;51.132;17.062;2024-01-15T09:17:11;6.47;;;4.93;;
18280;SDS011;9266;51.132;17.062;2024-01-15T09:19:38;9.77;;;5.37;;
18280;SDS011;9266;51.132;17.062;2024-01-15T09:22:06;5.50;;;4.77;;
18280;SDS011;9266;51.132;17.062;2024-01-15T09:24:33;6.43;;;4.50;;
18280;SDS011;9266;51.132;17.062;2024-01-15T09:27:00;8.50;;;4.93;;
18280;SDS011;9266;51.132;17.062;2024-01-15T09:29:27;9.37;;;5.27;;
18280;SDS011;9266;51.132;17.062;2024-01-15T09:31:54;7.43;;;4.40;;
18280;SDS011;9266;51.132;17.062;2024-01-15T09:34:23;8.07;;;4.90;;
18280;SDS011;9266;51.132;17.062;2024-01-15T09:36:50;7.63;;;4.80;;
18280;SDS011;9266;51.132;17.062;2024-01-15T09:39:17;8.90;;;5.23;;
18280;SDS011;9266;51.132;17.062;2024-01-15T09:41:44;7.70;;;5.47;;
18280;SDS011;9266;51.132;17.062;2024-01-15T09:44:13;8.10;;;4.77;;
18280;SDS011;9266;51.132;17.062;2024-01-15T09:46:40;7.53;;;4.80;;
18280;SDS011;9266;51.132;17.062;2024-01-15T09:49:09;9.60;;;5.60;;
18280;SDS011;9266;51.132;17.062;2024-01-15T09:51:38;6.70;;;4.73;;
18280;SDS011;9266;51.132;17.062;2024-01-15T09:54:06;9.23;;;5.43;;
18280;SDS011;9266;51.132;17.062;2024-01-15T09:56:33;81.83;;;39.63;;
18280;SDS011;9266;51.132;17.062;2024-01-15T09:59:01;9.80;;;5.43;;
18280;SDS011;9266;51.132;17.062;2024-01-15T10:01:29;8.47;;;5.03;;
18280;SDS011;9266;51.132;17.062;2024-01-15T10:03:58;8.43;;;5.00;;
18280;SDS011;9266;51.132;17.062;2024-01-15T10:06:26;7.13;;;4.80;;
18280;SDS011;9266;51.132;17.062;2024-01-15T10:08:55;6.00;;;4.20;;
18280;SDS011;9266;51.132;17.062;2024-01-15T10:11:24;8.57;;;6.20;;
18280;SDS011;9266;51.132;17.062;2024-01-15T10:13:51;8.67;;;4.43;;
18280;SDS011;9266;51.132;17.062;2024-01-15T10:16:19;8.07;;;5.13;;
18280;SDS011;9266;51.132;17.062;2024-01-15T10:18:47;8.83;;;4.87;;
18280;SDS011;9266;51.132;17.062;2024-01-15T10:21:14;7.30;;;4.80;;
18280;SDS011;9266;51.132;17.062;2024-01-15T10:23:41;6.90;;;4.60;;
18280;SDS011;9266;51.132;17.062;2024-01-15T10:26:09;6.73;;;5.03;;
18280;SDS011;9266;51.132;17.062;2024-01-15T10:28:37;7.27;;;4.47;;
18280;SDS011;9266;51.132;17.062;2024-01-15T10:31:03;6.27;;;4.17;;
18280;SDS011;9266;51.132;17.062;2024-01-15T10:33:31;6.27;;;4.73;;
18280;SDS011;9266;51.132;17.062;2024-01-15T10:35:59;9.27;;;4.90;;
18280;SDS011;9266;51.132;17.062;2024-01-15T10:38:27;10.20;;;5.00;;
18280;SDS011;9266;51.132;17.062;2024-01-15T10:40:54;7.00;;;4.73;;
18280;SDS011;9266;51.132;17.062;2024-01-15T10:43:23;10.97;;;6.37;;
18280;SDS011;9266;51.132;17.062;2024-01-15T10:45:50;8.10;;;4.97;;
18280;SDS011;9266;51.132;17.062;2024-01-15T10:48:18;7.40;;;5.03;;
18280;SDS011;9266;51.132;17.062;2024-01-15T10:50:46;10.03;;;5.40;;
18280;SDS011;9266;51.132;17.062;2024-01-15T10:53:13;8.63;;;5.23;;
18280;SDS011;9266;51.132;17.062;2024-01-15T10:55:42;7.57;;;4.33;;
18280;SDS011;9266;51.132;17.062;2024-01-15T10:58:09;10.77;;;5.13;;
18280;SDS011;9266;51.132;17.062;2024-01-15T11:00:37;7.10;;;4.33;;
18280;SDS011;9266;51.132;17.062;2024-01-15T11:03:05;9.30;;;5.40;;
18280;SDS011;9266;51.132;17.062;2024-01-15T11:05:33;6.03;;;4.90;;
18280;SDS011;9266;51.132;17.062;2024-01-15T11:08:04;9.23;;;4.60;;
18280;SDS011;9266;51.132;17.062;2024-01-15T11:10:38;6.50;;;5.03;;
18280;SDS011;9266;51.132;17.062;2024-01-15T11:13:10;6.70;;;4.80;;
18280;SDS011;9266;51.132;17.062;2024-01-15T11:15:57;7.37;;;4.40;;
18280;SDS011;9266;51.132;17.062;2024-01-15T11:18:26;8.13;;;4.60;;
18280;SDS011;9266;51.132;17.062;2024-01-15T11:23:47;6.37;;;4.30;;
18280;SDS011;9266;51.132;17.062;2024-01-15T11:29:10;8.07;;;5.33;;
18280;SDS011;9266;51.132;17.062;2024-01-15T11:31:59;9.37;;;4.50;;
18280;SDS011;9266;51.132;17.062;2024-01-15T11:37:16;6.23;;;4.77;;
18280;SDS011;9266;51.132;17.062;2024-01-15T11:39:43;7.47;;;4.10;;
18280;SDS011;9266;51.132;17.062;2024-01-15T11:42:11;6.57;;;4.57;;
18280;SDS011;9266;51.132;17.062;2024-01-15T11:44:39;7.47;;;4.10;;
18280;SDS011;9266;51.132;17.062;2024-01-15T11:47:08;7.13;;;4.83;;
18280;SDS011;9266;51.132;17.062;2024-01-15T11:52:26;8.77;;;4.73;;
18280;SDS011;9266;51.132;17.062;2024-01-15T11:55:00;8.93;;;4.93;;
18280;SDS011;9266;51.132;17.062;2024-01-15T11:57:40;6.43;;;4.07;;
18280;SDS011;9266;51.132;17.062;2024-01-15T12:00:09;6.93;;;4.23;;
18280;SDS011;9266;51.132;17.062;2024-01-15T12:02:39;7.30;;;5.20;;
18280;SDS011;9266;51.132;17.062;2024-01-15T12:05:07;8.73;;;4.57;;
18280;SDS011;9266;51.132;17.062;2024-01-15T12:07:35;7.03;;;4.43;;
18280;SDS011;9266;51.132;17.062;2024-01-15T12:10:02;9.13;;;4.60;;
18280;SDS011;9266;51.132;17.062;2024-01-15T12:12:34;10.00;;;4.60;;
18280;SDS011;9266;51.132;17.062;2024-01-15T12:15:07;9.40;;;4.43;;
18280;SDS011;9266;51.132;17.062;2024-01-15T12:17:34;9.10;;;4.50;;
18280;SDS011;9266;51.132;17.062;2024-01-15T12:20:03;10.97;;;5.10;;
18280;SDS011;9266;51.132;17.062;2024-01-15T12:22:31;8.73;;;4.80;;
18280;SDS011;9266;51.132;17.062;2024-01-15T12:24:58;9.77;;;4.50;;
18280;SDS011;9266;51.132;17.062;2024-01-15T12:27:25;12.83;;;5.23;;
18280;SDS011;9266;51.132;17.062;2024-01-15T12:29:52;5.67;;;4.30;;
18280;SDS011;9266;51.132;17.062;2024-01-15T12:32:19;8.40;;;4.67;;
18280;SDS011;9266;51.132;17.062;2024-01-15T12:34:47;11.10;;;4.70;;
18280;SDS011;9266;51.132;17.062;2024-01-15T12:37:17;7.77;;;4.43;;
18280;SDS011;9266;51.132;17.062;2024-01-15T12:39:44;8.90;;;4.97;;
18280;SDS011;9266;51.132;17.062;2024-01-15T12:42:11;9.03;;;4.67;;
18280;SDS011;9266;51.132;17.062;2024-01-15T12:44:40;8.90;;;6.03;;
18280;SDS011;9266;51.132;17.062;2024-01-15T12:47:07;6.77;;;3.83;;
18280;SDS011;9266;51.132;17.062;2024-01-15T12:49:35;6.70;;;4.07;;
18280;SDS011;9266;51.132;17.062;2024-01-15T12:52:03;7.03;;;4.60;;
18280;SDS011;9266;51.132;17.062;2024-01-15T12:54:31;7.13;;;4.70;;
18280;SDS011;9266;51.132;17.062;2024-01-15T12:56:58;7.57;;;4.83;;
18280;SDS011;9266;51.132;17.062;2024-01-15T12:59:25;6.60;;;4.23;;
18280;SDS011;9266;51.132;17.062;2024-01-15T13:01:52;6.87;;;4.40;;
18280;SDS011;9266;51.132;17.062;2024-01-15T13:04:23;10.97;;;4.83;;
18280;SDS011;9266;51.132;17.062;2024-01-15T13:06:51;7.93;;;4.50;;
18280;SDS011;9266;51.132;17.062;2024-01-15T13:09:18;8.73;;;5.67;;
18280;SDS011;9266;51.132;17.062;2024-01-15T13:11:46;7.87;;;4.63;;
18280;SDS011;9266;51.132;17.062;2024-01-15T13:14:14;7.87;;;4.83;;
18280;SDS011;9266;51.132;17.062;2024-01-15T13:16:41;10.20;;;4.93;;
18280;SDS011;9266;51.132;17.062;2024-01-15T13:19:08;8.67;;;5.17;;
18280;SDS011;9266;51.132;17.062;2024-01-15T13:21:36;10.13;;;4.57;;
18280;SDS011;9266;51.132;17.062;2024-01-15T13:24:04;8.20;;;4.73;;
18280;SDS011;9266;51.132;17.062;2024-01-15T13:26:31;10.60;;;5.13;;
18280;SDS011;9266;51.132;17.062;2024-01-15T13:29:00;9.77;;;5.60;;
18280;SDS011;9266;51.132;17.062;2024-01-15T13:31:28;6.23;;;4.63;;
18280;SDS011;9266;51.132;17.062;2024-01-15T13:33:55;9.33;;;5.23;;
18280;SDS011;9266;51.132;17.062;2024-01-15T13:36:23;9.10;;;4.33;;
18280;SDS011;9266;51.132;17.062;2024-01-15T13:38:50;6.17;;;4.70;;
18280;SDS011;9266;51.132;17.062;2024-01-15T13:41:17;7.60;;;4.63;;
18280;SDS011;9266;51.132;17.062;2024-01-15T13:43:45;11.67;;;5.10;;
18280;SDS011;9266;51.132;17.062;2024-01-15T13:46:13;9.07;;;4.93;;
18280;SDS011;9266;51.132;17.062;2024-01-15T13:48:40;10.00;;;5.60;;
18280;SDS011;9266;51.132;17.062;2024-01-15T13:51:07;7.87;;;5.07;;
18280;SDS011;9266;51.132;17.062;2024-01-15T13:53:34;7.50;;;4.63;;
18280;SDS011;9266;51.132;17.062;2024-01-15T13:56:01;7.50;;;4.60;;
18280;SDS011;9266;51.132;17.062;2024-01-15T13:58:28;9.63;;;5.00;;
18280;SDS011;9266;51.132;17.062;2024-01-15T14:00:55;10.40;;;5.10;;
18280;SDS011;9266;51.132;17.062;2024-01-15T14:03:23;6.87;;;5.10;;
18280;SDS011;9266;51.132;17.062;2024-01-15T14:05:50;8.13;;;5.07;;
18280;SDS011;9266;51.132;17.062;2024-01-15T14:08:17;7.20;;;5.17;;
18280;SDS011;9266;51.132;17.062;2024-01-15T14:10:44;7.93;;;4.60;;
18280;SDS011;9266;51.132;17.062;2024-01-15T14:13:11;7.63;;;4.83;;
18280;SDS011;9266;51.132;17.062;2024-01-15T14:15:38;11.50;;;5.00;;
18280;SDS011;9266;51.132;17.062;2024-01-15T14:18:05;7.53;;;4.50;;
18280;SDS011;9266;51.132;17.062;2024-01-15T14:20:34;10.40;;;5.30;;
18280;SDS011;9266;51.132;17.062;2024-01-15T14:23:00;9.33;;;5.10;;
18280;SDS011;9266;51.132;17.062;2024-01-15T14:25:27;8.10;;;4.87;;
18280;SDS011;9266;51.132;17.062;2024-01-15T14:27:54;7.87;;;4.80;;
18280;SDS011;9266;51.132;17.062;2024-01-15T14:30:21;7.83;;;4.77;;
18280;SDS011;9266;51.132;17.062;2024-01-15T14:32:48;6.73;;;4.67;;
18280;SDS011;9266;51.132;17.062;2024-01-15T14:35:15;7.97;;;4.47;;
18280;SDS011;9266;51.132;17.062;2024-01-15T14:37:43;8.93;;;5.13;;
18280;SDS011;9266;51.132;17.062;2024-01-15T14:40:10;8.37;;;4.37;;
18280;SDS011;9266;51.132;17.062;2024-01-15T14:42:37;8.30;;;4.80;;
18280;SDS011;9266;51.132;17.062;2024-01-15T14:45:04;6.83;;;4.60;;
18280;SDS011;9266;51.132;17.062;2024-01-15T14:47:36;9.50;;;4.80;;
18280;SDS011;9266;51.132;17.062;2024-01-15T14:50:04;5.40;;;3.87;;